Time;durP1;ratioP1;P1;durP2;ratioP2;P2;SDS_P1;SDS_P2;PMS_P1;PMS_P2;Temp;Humidity;BMP_temperature;BMP_pressure;BME280_temperature;BME280_humidity;BME280_pressure;Samples;Min_cycle;Max_cycle;Signal;HPM_P1;HPM_P2
2022/07/01 00:02:11;;;;;;;3.45;3.10;;;15.00;99.90;;;;;;4957315;28;20086;-86
2022/07/01 00:04:36;;;;;;;4.07;2.75;;;15.10;99.90;;;;;;4968512;28;20023;-86
2022/07/01 00:07:02;;;;;;;2.75;2.47;;;15.10;99.90;;;;;;4939785;28;20043;-86
2022/07/01 00:09:28;;;;;;;3.33;2.30;;;15.10;99.90;;;;;;4951066;28;20109;-86
2022/07/01 00:11:54;;;;;;;2.75;2.50;;;15.00;99.90;;;;;;4955754;28;20035;-85
2022/07/01 00:14:22;;;;;;;4.18;2.22;;;15.10;99.90;;;;;;4943900;29;20046;-86
2022/07/01 00:16:48;;;;;;;4.28;2.92;;;15.10;99.90;;;;;;4948189;28;20503;-86
2022/07/01 00:19:14;;;;;;;3.65;2.10;;;15.10;99.90;;;;;;4948230;28;20097;-86
2022/07/01 00:21:40;;;;;;;3.13;2.50;;;15.10;99.90;;;;;;4962839;28;20480;-86
2022/07/01 00:24:06;;;;;;;3.28;2.13;;;15.20;99.90;;;;;;4951846;28;20546;-86
2022/07/01 00:26:32;;;;;;;5.68;2.58;;;15.20;99.90;;;;;;4956608;28;20039;-86
2022/07/01 00:28:57;;;;;;;4.38;2.78;;;15.20;99.90;;;;;;4940023;28;20522;-84
2022/07/01 00:31:23;;;;;;;3.25;2.60;;;15.20;99.90;;;;;;4927496;28;20039;-86
2022/07/01 00:33:49;;;;;;;5.18;2.88;;;15.20;99.90;;;;;;4937183;28;20034;-86
2022/07/01 00:36:14;;;;;;;2.30;2.15;;;15.20;99.90;;;;;;4955245;28;20456;-85
2022/07/01 00:38:40;;;;;;;2.30;2.10;;;15.20;99.90;;;;;;4950723;28;20431;-85
2022/07/01 00:41:06;;;;;;;2.50;1.95;;;15.20;99.90;;;;;;4947012;28;20043;-87
2022/07/01 00:43:40;;;;;;;2.47;1.90;;;15.20;99.90;;;;;;4949882;28;20026;-87
2022/07/01 00:46:06;;;;;;;2.97;1.55;;;15.20;99.90;;;;;;4953071;28;20488;-87
2022/07/01 00:48:34;;;;;;;2.15;1.60;;;15.20;99.90;;;;;;4953030;28;20034;-88
2022/07/01 00:51:00;;;;;;;5.15;1.48;;;15.20;99.90;;;;;;4930480;28;20068;-87
2022/07/01 00:53:26;;;;;;;2.60;1.60;;;15.20;99.90;;;;;;4947996;28;20535;-87
2022/07/01 00:55:52;;;;;;;2.70;1.63;;;15.20;99.90;;;;;;4953939;28;20066;-87
2022/07/01 00:58:18;;;;;;;2.13;1.17;;;15.20;99.90;;;;;;4951922;28;20035;-87
2022/07/01 01:00:44;;;;;;;2.95;1.25;;;15.20;99.90;;;;;;4933414;29;20492;-87
2022/07/01 01:03:11;;;;;;;1.50;1.40;;;15.10;99.90;;;;;;4936680;28;20419;-88
2022/07/01 01:05:38;;;;;;;2.25;1.10;;;15.10;99.90;;;;;;4952279;28;20039;-87
2022/07/01 01:08:04;;;;;;;1.48;1.08;;;15.10;99.90;;;;;;4936695;28;20050;-87
2022/07/01 01:10:30;;;;;;;2.60;1.13;;;15.10;99.90;;;;;;4951667;28;20455;-87
2022/07/01 01:12:57;;;;;;;1.25;1.00;;;15.10;99.90;;;;;;4954704;28;20075;-87
2022/07/01 01:15:22;;;;;;;2.05;1.10;;;15.10;99.90;;;;;;4953733;28;20034;-87
2022/07/01 01:17:49;;;;;;;1.30;1.20;;;15.10;99.90;;;;;;4955947;28;20039;-87
2022/07/01 01:20:16;;;;;;;1.58;1.20;;;15.10;99.90;;;;;;4935025;29;20039;-87
2022/07/01 01:22:43;;;;;;;1.60;1.30;;;15.10;99.90;;;;;;4934424;28;20089;-89
2022/07/01 01:25:08;;;;;;;1.52;1.30;;;15.00;99.90;;;;;;4954226;28;20138;-88
2022/07/01 01:27:34;;;;;;;2.13;1.13;;;15.00;99.90;;;;;;4932806;28;20035;-88
2022/07/01 01:30:00;;;;;;;2.35;1.20;;;15.00;99.90;;;;;;4953351;28;20047;-86
2022/07/01 01:32:25;;;;;;;2.25;1.10;;;15.00;99.90;;;;;;4928291;29;20062;-88
2022/07/01 01:34:51;;;;;;;1.40;1.25;;;15.00;99.90;;;;;;4941784;28;20041;-88
2022/07/01 01:37:17;;;;;;;2.00;1.10;;;15.00;99.90;;;;;;4943856;28;20109;-86
2022/07/01 01:39:43;;;;;;;1.65;1.30;;;15.00;99.90;;;;;;4943139;28;20550;-87
2022/07/01 01:42:08;;;;;;;1.77;1.20;;;15.00;99.90;;;;;;4946066;28;20628;-86
2022/07/01 01:44:34;;;;;;;1.75;1.10;;;15.00;99.90;;;;;;4941507;28;20031;-87
2022/07/01 01:47:00;;;;;;;1.98;1.10;;;15.00;99.90;;;;;;4953467;28;20042;-86
2022/07/01 01:49:25;;;;;;;1.50;1.23;;;15.00;99.90;;;;;;4954371;28;20434;-86
2022/07/01 01:51:51;;;;;;;1.77;1.23;;;15.10;99.90;;;;;;4954503;28;20038;-86
2022/07/01 01:54:17;;;;;;;2.17;1.67;;;15.10;99.90;;;;;;4942481;29;20476;-85
2022/07/01 01:56:42;;;;;;;2.00;1.88;;;15.10;99.90;;;;;;4942328;28;20035;-86
2022/07/01 01:59:08;;;;;;;3.53;3.20;;;15.10;99.90;;;;;;4951345;28;20423;-86
2022/07/01 02:01:34;;;;;;;6.63;5.32;;;15.10;99.90;;;;;;4941747;29;20478;-86
2022/07/01 02:03:59;;;;;;;8.35;6.72;;;15.10;99.90;;;;;;4952495;28;20043;-86
2022/07/01 02:06:25;;;;;;;9.73;7.93;;;15.10;99.90;;;;;;4953525;28;20039;-86
2022/07/01 02:08:51;;;;;;;14.52;11.57;;;15.10;99.90;;;;;;4953259;28;20035;-86
2022/07/01 02:11:17;;;;;;;14.55;13.05;;;15.10;99.90;;;;;;4926778;28;20472;-85
2022/07/01 02:13:44;;;;;;;17.58;14.98;;;15.10;99.90;;;;;;4935444;28;20038;-86
2022/07/01 02:16:09;;;;;;;23.02;20.33;;;15.10;99.90;;;;;;4950094;28;20051;-86
2022/07/01 02:18:35;;;;;;;25.55;21.33;;;15.20;99.90;;;;;;4945796;28;20133;-86
2022/07/01 02:21:01;;;;;;;30.17;23.00;;;15.20;99.90;;;;;;4947478;28;20042;-85
2022/07/01 02:23:29;;;;;;;28.02;22.48;;;15.20;99.90;;;;;;4945695;28;20027;-86
2022/07/01 02:25:55;;;;;;;24.85;21.00;;;15.10;99.90;;;;;;4928607;28;20035;-86
2022/07/01 02:28:20;;;;;;;23.52;19.40;;;15.20;99.90;;;;;;4946819;29;20039;-87
2022/07/01 02:30:46;;;;;;;25.67;19.88;;;15.10;99.90;;;;;;4951151;28;20062;-86
2022/07/01 02:33:12;;;;;;;24.88;19.80;;;15.10;99.90;;;;;;4966710;28;20039;-87
2022/07/01 02:35:39;;;;;;;25.45;19.40;;;15.10;99.90;;;;;;4931100;29;20035;-87
2022/07/01 02:38:06;;;;;;;25.85;20.27;;;15.10;99.90;;;;;;4952068;28;20470;-87
2022/07/01 02:40:33;;;;;;;25.70;18.88;;;15.10;99.90;;;;;;4953402;28;20388;-87
2022/07/01 02:42:59;;;;;;;21.15;17.15;;;15.10;99.90;;;;;;4935663;28;20089;-87
2022/07/01 02:45:25;;;;;;;25.90;19.23;;;15.10;99.90;;;;;;4964029;28;20039;-86
2022/07/01 02:47:51;;;;;;;21.75;18.40;;;15.10;99.90;;;;;;4937786;28;20034;-87
2022/07/01 02:50:18;;;;;;;22.92;18.40;;;15.00;99.90;;;;;;4972750;28;20087;-86
2022/07/01 02:52:45;;;;;;;23.40;17.65;;;15.00;99.90;;;;;;4961389;28;20049;-87
2022/07/01 02:55:12;;;;;;;22.63;17.35;;;15.00;99.90;;;;;;4972845;28;20050;-86
2022/07/01 02:57:39;;;;;;;20.52;17.50;;;15.00;99.90;;;;;;4957083;29;20044;-86
2022/07/01 03:00:07;;;;;;;19.95;16.73;;;15.00;99.90;;;;;;4945150;28;20495;-85
2022/07/01 03:02:34;;;;;;;24.52;17.50;;;14.90;99.90;;;;;;4950837;28;20130;-86
2022/07/01 03:05:00;;;;;;;21.17;16.27;;;15.00;99.90;;;;;;4952165;28;20050;-85
2022/07/01 03:07:26;;;;;;;20.15;17.08;;;14.90;99.90;;;;;;4946584;28;20115;-86
2022/07/01 03:09:51;;;;;;;18.50;16.33;;;14.90;99.90;;;;;;4927179;28;20042;-86
2022/07/01 03:12:30;;;;;;;18.50;15.80;;;14.90;99.90;;;;;;4942522;29;20122;-87
2022/07/01 03:15:13;;;;;;;19.70;15.65;;;14.90;99.90;;;;;;4948642;28;20074;-86
2022/07/01 03:17:41;;;;;;;18.48;16.45;;;14.90;99.90;;;;;;4953605;28;20042;-87
2022/07/01 03:20:09;;;;;;;19.10;16.23;;;14.90;99.90;;;;;;4960551;28;20051;-86
2022/07/01 03:22:35;;;;;;;21.45;16.02;;;14.90;99.90;;;;;;4954339;28;20037;-86
2022/07/01 03:25:03;;;;;;;18.70;15.32;;;14.90;99.90;;;;;;4953805;28;20125;-87
2022/07/01 03:27:29;;;;;;;17.60;15.70;;;14.90;99.90;;;;;;4960087;28;20074;-86
2022/07/01 03:29:55;;;;;;;18.90;15.52;;;14.90;99.90;;;;;;4965136;28;20038;-86
2022/07/01 03:32:20;;;;;;;18.00;15.63;;;14.90;99.90;;;;;;4949468;28;20042;-86
2022/07/01 03:34:49;;;;;;;18.83;15.30;;;14.90;99.90;;;;;;4964106;28;20126;-87
2022/07/01 03:37:16;;;;;;;18.00;15.95;;;14.90;99.90;;;;;;4943505;28;20034;-87
2022/07/01 03:39:42;;;;;;;19.88;16.05;;;14.80;99.90;;;;;;4948987;28;20396;-86
2022/07/01 03:42:08;;;;;;;19.25;15.80;;;14.80;99.90;;;;;;4947189;28;20054;-87
2022/07/01 03:44:35;;;;;;;22.35;15.63;;;14.80;99.90;;;;;;4963864;28;20022;-87
2022/07/01 03:47:07;;;;;;;20.52;17.85;;;14.80;99.90;;;;;;5005033;23;20046;-86
2022/07/01 03:49:34;;;;;;;22.85;17.35;;;14.80;99.90;;;;;;5010389;28;20046;-87
2022/07/01 03:52:01;;;;;;;19.20;16.63;;;14.80;99.90;;;;;;4998075;28;20042;-88
2022/07/01 03:54:29;;;;;;;21.55;17.63;;;14.80;99.90;;;;;;5015099;28;20037;-88
2022/07/01 03:56:59;;;;;;;23.45;17.95;;;14.80;99.90;;;;;;4996612;28;20038;-88
2022/07/01 03:59:26;;;;;;;22.02;18.85;;;14.80;99.90;;;;;;4968947;28;20057;-87
2022/07/01 04:01:53;;;;;;;25.75;19.05;;;14.70;99.90;;;;;;4970910;28;20061;-87
2022/07/01 04:04:19;;;;;;;23.50;19.20;;;14.70;99.90;;;;;;4987131;28;20038;-88
2022/07/01 04:06:46;;;;;;;25.98;21.02;;;14.80;99.90;;;;;;4966835;28;20490;-87
2022/07/01 04:09:14;;;;;;;26.63;21.27;;;14.80;99.90;;;;;;4984243;28;20070;-87
2022/07/01 04:11:41;;;;;;;27.23;20.75;;;14.80;99.90;;;;;;4964253;28;20038;-87
2022/07/01 04:14:07;;;;;;;26.58;21.55;;;14.80;99.90;;;;;;4990021;28;20034;-87
2022/07/01 04:16:33;;;;;;;30.42;22.75;;;14.80;99.90;;;;;;4969107;28;20034;-87
2022/07/01 04:18:58;;;;;;;32.60;22.80;;;14.80;99.90;;;;;;4984582;28;20042;-88
2022/07/01 04:24:08;;;;;;;31.40;23.45;;;14.80;99.90;;;;;;4985900;28;20046;-82
2022/07/01 04:26:34;;;;;;;32.42;23.17;;;14.70;99.90;;;;;;5010440;28;20102;-80
2022/07/01 04:29:00;;;;;;;31.85;23.88;;;14.70;99.90;;;;;;4993946;28;20041;-80
2022/07/01 04:31:26;;;;;;;35.08;24.98;;;14.80;99.90;;;;;;4987555;28;20084;-78
2022/07/01 04:33:51;;;;;;;33.35;23.88;;;14.80;99.90;;;;;;4988263;28;20038;-79
2022/07/01 04:36:18;;;;;;;33.03;23.65;;;14.70;99.90;;;;;;4987825;28;20038;-80
2022/07/01 04:38:44;;;;;;;32.60;24.73;;;14.70;99.90;;;;;;4986792;28;20096;-79
2022/07/01 04:43:54;;;;;;;31.55;24.63;;;14.80;99.90;;;;;;4986008;28;20069;-79
2022/07/01 04:46:20;;;;;;;34.67;25.02;;;14.80;99.90;;;;;;4986639;28;20042;-79
2022/07/01 04:48:45;;;;;;;32.67;24.60;;;14.80;99.90;;;;;;4989243;28;20072;-80
2022/07/01 04:51:11;;;;;;;32.50;25.40;;;14.80;99.90;;;;;;4985281;28;20415;-80
2022/07/01 04:53:37;;;;;;;35.33;26.55;;;14.80;99.90;;;;;;5006008;28;20139;-79
2022/07/01 04:56:02;;;;;;;35.50;26.85;;;14.80;99.90;;;;;;4973201;28;20037;-79
2022/07/01 04:58:28;;;;;;;33.95;26.05;;;14.70;99.90;;;;;;4985001;28;20482;-79
2022/07/01 05:00:54;;;;;;;36.42;27.00;;;14.70;99.90;;;;;;4985637;28;20506;-80
2022/07/01 05:03:19;;;;;;;33.83;25.92;;;14.70;99.90;;;;;;4986317;28;20034;-79
2022/07/01 05:05:45;;;;;;;36.15;26.65;;;14.70;99.90;;;;;;4967481;28;20044;-79
2022/07/01 05:08:10;;;;;;;39.65;27.65;;;14.70;99.90;;;;;;4993933;28;20129;-80
2022/07/01 05:10:36;;;;;;;38.50;27.02;;;14.60;99.90;;;;;;4993699;28;20201;-80
2022/07/01 05:13:02;;;;;;;40.88;28.13;;;14.70;99.90;;;;;;4990818;28;20056;-80
2022/07/01 05:15:28;;;;;;;39.97;27.85;;;14.70;99.90;;;;;;4975293;28;20031;-80
2022/07/01 05:23:22;;;;;;;;;;;14.70;99.90;;;;;;4987730;28;20069;-80
2022/07/01 05:25:47;;;;;;;36.75;27.85;;;14.80;99.90;;;;;;4965981;28;19967;-78
2022/07/01 05:28:13;;;;;;;37.08;27.98;;;14.80;99.90;;;;;;4965847;28;20044;-79
2022/07/01 05:30:39;;;;;;;37.67;27.98;;;14.80;99.90;;;;;;4976164;28;20039;-78
2022/07/01 05:33:05;;;;;;;37.65;28.50;;;14.80;99.90;;;;;;4992413;28;20053;-79
2022/07/01 05:35:31;;;;;;;35.92;28.65;;;14.90;99.90;;;;;;4978845;28;20092;-79
2022/07/01 05:37:57;;;;;;;36.08;28.52;;;14.90;99.90;;;;;;4977115;28;20038;-79
2022/07/01 05:40:23;;;;;;;38.13;29.17;;;14.90;99.90;;;;;;4972660;28;20524;-80
2022/07/01 05:42:48;;;;;;;36.45;28.77;;;15.00;99.90;;;;;;4962151;28;20038;-79
2022/07/01 05:45:14;;;;;;;35.65;27.13;;;15.00;99.90;;;;;;4983193;28;20034;-78
2022/07/01 05:47:40;;;;;;;35.80;27.30;;;15.00;99.90;;;;;;4982060;28;20042;-78
2022/07/01 05:50:06;;;;;;;34.00;26.83;;;15.10;99.90;;;;;;4964091;28;20417;-79
2022/07/01 05:52:32;;;;;;;36.50;28.83;;;15.00;99.90;;;;;;4978434;28;20164;-79
2022/07/01 05:54:58;;;;;;;37.90;29.90;;;15.10;99.90;;;;;;4964358;28;20520;-79
2022/07/01 05:57:24;;;;;;;34.53;27.92;;;15.10;99.90;;;;;;4972566;28;20601;-81
2022/07/01 05:59:49;;;;;;;36.83;28.05;;;15.10;99.90;;;;;;4986363;28;20042;-79
2022/07/01 06:02:15;;;;;;;35.90;28.50;;;15.10;99.90;;;;;;4988627;28;20042;-78
2022/07/01 06:04:43;;;;;;;33.97;28.85;;;15.20;99.90;;;;;;4978792;28;20053;-78
2022/07/01 06:07:10;;;;;;;36.15;27.92;;;15.20;99.90;;;;;;4972821;28;20045;-79
2022/07/01 06:09:36;;;;;;;37.50;26.45;;;15.20;99.90;;;;;;4984369;28;20528;-81
2022/07/01 06:12:03;;;;;;;36.30;27.45;;;15.30;99.90;;;;;;4975820;28;20050;-81
2022/07/01 06:14:29;;;;;;;35.40;27.92;;;15.30;99.90;;;;;;4964896;28;20084;-80
2022/07/01 06:16:55;;;;;;;34.15;27.05;;;15.40;99.90;;;;;;4992374;28;20077;-79
2022/07/01 06:19:20;;;;;;;34.10;27.15;;;15.50;99.90;;;;;;4996716;28;20042;-80
2022/07/01 06:21:46;;;;;;;35.00;28.33;;;15.50;99.90;;;;;;5007156;28;20034;-80
2022/07/01 06:24:12;;;;;;;33.38;26.80;;;15.50;99.90;;;;;;4987868;28;20030;-81
2022/07/01 06:26:38;;;;;;;34.72;27.10;;;15.50;99.90;;;;;;4961926;28;20042;-79
2022/07/01 06:29:04;;;;;;;31.75;26.90;;;15.50;99.90;;;;;;4982230;28;20084;-77
2022/07/01 06:31:32;;;;;;;31.58;27.02;;;15.50;99.90;;;;;;4989578;28;20030;-87
2022/07/01 06:33:58;;;;;;;36.17;27.70;;;15.50;99.90;;;;;;4993561;28;20111;-86
2022/07/01 06:36:24;;;;;;;36.90;28.40;;;15.60;99.90;;;;;;4985988;28;20373;-87
2022/07/01 06:38:49;;;;;;;35.25;26.77;;;15.70;99.90;;;;;;4969350;28;20453;-87
2022/07/01 06:41:27;;;;;;;30.52;25.90;;;15.70;99.90;;;;;;4976906;28;20030;-87
2022/07/01 06:43:57;;;;;;;32.17;27.08;;;15.70;99.90;;;;;;4974191;28;20498;-87
2022/07/01 06:46:24;;;;;;;34.25;27.20;;;15.60;99.90;;;;;;4984759;28;20042;-86
2022/07/01 06:48:50;;;;;;;35.45;26.52;;;15.60;99.90;;;;;;4981275;28;20049;-87
2022/07/01 06:51:15;;;;;;;35.55;27.90;;;15.60;99.90;;;;;;4967726;28;20113;-87
2022/07/01 06:53:42;;;;;;;32.17;26.45;;;15.60;99.90;;;;;;4965804;28;20045;-86
2022/07/01 06:56:08;;;;;;;33.90;27.05;;;15.50;99.90;;;;;;4984012;28;20046;-86
2022/07/01 06:58:33;;;;;;;33.42;27.40;;;15.50;99.90;;;;;;4965341;28;20041;-86
2022/07/01 07:00:59;;;;;;;37.50;29.70;;;15.50;99.90;;;;;;4968844;28;20414;-87
2022/07/01 07:03:25;;;;;;;35.65;29.65;;;15.50;99.90;;;;;;4986651;28;20121;-85
2022/07/01 07:05:52;;;;;;;36.08;29.55;;;15.50;99.90;;;;;;4967055;28;20042;-86
2022/07/01 07:08:18;;;;;;;34.60;28.95;;;15.50;99.90;;;;;;4994190;28;20042;-86
2022/07/01 07:10:44;;;;;;;34.20;28.83;;;15.60;99.90;;;;;;4970391;28;20045;-86
2022/07/01 07:13:09;;;;;;;33.88;27.52;;;15.60;99.90;;;;;;4980305;28;20624;-87
2022/07/01 07:15:35;;;;;;;38.20;28.90;;;15.60;99.90;;;;;;4996000;28;20041;-87
2022/07/01 07:18:01;;;;;;;33.30;28.08;;;15.60;99.90;;;;;;4988610;28;20038;-88
2022/07/01 07:20:27;;;;;;;37.53;30.52;;;15.70;99.90;;;;;;5009171;28;20030;-87
2022/07/01 07:22:53;;;;;;;32.78;28.77;;;15.70;99.90;;;;;;4982333;28;20044;-87
2022/07/01 07:25:20;;;;;;;31.80;27.30;;;15.80;99.90;;;;;;4994496;28;20045;-87
2022/07/01 07:27:46;;;;;;;34.65;28.80;;;15.90;99.90;;;;;;5003700;28;20030;-88
2022/07/01 07:30:13;;;;;;;33.95;27.40;;;15.90;99.90;;;;;;5013717;28;20018;-86
2022/07/01 07:32:39;;;;;;;33.83;28.08;;;16.10;99.90;;;;;;5000403;28;20070;-81
2022/07/01 07:35:06;;;;;;;34.38;27.58;;;16.20;99.90;;;;;;5022453;28;20397;-88
2022/07/01 07:37:32;;;;;;;36.85;28.08;;;16.30;99.90;;;;;;4993092;28;20053;-87
2022/07/01 07:39:59;;;;;;;32.13;27.17;;;16.50;99.90;;;;;;4989802;28;20522;-87
2022/07/01 07:42:28;;;;;;;31.30;25.75;;;16.50;99.90;;;;;;4995294;28;20442;-87
2022/07/01 07:44:54;;;;;;;30.73;25.25;;;16.50;99.90;;;;;;4980724;28;20037;-86
2022/07/01 07:47:20;;;;;;;30.77;25.73;;;16.70;99.90;;;;;;4977991;28;20126;-88
2022/07/01 07:49:46;;;;;;;30.05;25.40;;;16.90;99.90;;;;;;4976086;28;20070;-87
2022/07/01 07:52:11;;;;;;;32.30;25.55;;;17.10;99.90;;;;;;5014204;28;20399;-87
2022/07/01 07:54:37;;;;;;;29.45;24.70;;;17.10;99.90;;;;;;4972513;28;20031;-86
2022/07/01 07:57:04;;;;;;;26.08;23.25;;;17.10;99.90;;;;;;4987403;28;20042;-86
2022/07/01 07:59:33;;;;;;;29.30;24.63;;;17.10;99.90;;;;;;4974983;28;20037;-86
2022/07/01 08:01:59;;;;;;;28.40;23.27;;;17.20;99.90;;;;;;4990367;28;20042;-87
2022/07/01 08:04:24;;;;;;;30.77;24.38;;;17.20;99.90;;;;;;5006980;28;20106;-87
2022/07/01 08:06:50;;;;;;;27.52;22.98;;;17.30;99.90;;;;;;4995402;28;20044;-87
2022/07/01 08:09:16;;;;;;;29.10;23.73;;;17.40;99.90;;;;;;4999719;28;20081;-87
2022/07/01 08:11:41;;;;;;;26.63;22.90;;;17.50;99.90;;;;;;4982513;28;20038;-87
2022/07/01 08:14:07;;;;;;;27.77;21.60;;;17.70;99.90;;;;;;4979350;28;20073;-87
2022/07/01 08:16:33;;;;;;;26.10;21.08;;;17.70;99.90;;;;;;4974427;28;20042;-86
2022/07/01 08:18:59;;;;;;;25.98;21.73;;;17.80;99.90;;;;;;4968203;28;20088;-86
2022/07/01 08:21:24;;;;;;;24.85;20.15;;;17.80;99.90;;;;;;4978205;28;20520;-86
2022/07/01 08:23:50;;;;;;;21.65;19.02;;;17.90;99.90;;;;;;4971440;28;20471;-86
2022/07/01 08:26:17;;;;;;;23.67;20.98;;;17.90;99.90;;;;;;4972891;28;20053;-87
2022/07/01 08:28:43;;;;;;;25.92;20.20;;;18.10;99.90;;;;;;4982777;28;20046;-86
2022/07/01 08:31:09;;;;;;;23.85;20.50;;;18.30;99.90;;;;;;4993518;28;20980;-86
2022/07/01 08:33:34;;;;;;;22.75;19.63;;;18.30;99.90;;;;;;4988775;28;20121;-85
2022/07/01 08:36:05;;;;;;;24.15;19.38;;;18.30;99.90;;;;;;5001978;28;20053;-86
2022/07/01 08:38:31;;;;;;;21.73;18.98;;;18.40;99.90;;;;;;4973917;28;20519;-86
2022/07/01 08:40:57;;;;;;;22.55;19.27;;;18.40;99.90;;;;;;4972927;28;20034;-86
2022/07/01 08:43:22;;;;;;;22.83;19.80;;;18.60;99.90;;;;;;4974920;28;20026;-86
2022/07/01 08:45:53;;;;;;;23.27;19.02;;;18.70;99.90;;;;;;4974929;28;20489;-87
2022/07/01 08:48:19;;;;;;;20.52;17.33;;;19.00;99.90;;;;;;4997867;28;20038;-87
2022/07/01 08:50:45;;;;;;;20.88;17.33;;;19.10;99.90;;;;;;4989130;28;20581;-87
2022/07/01 08:53:12;;;;;;;18.63;15.90;;;19.40;99.90;;;;;;4966103;28;20077;-86
2022/07/01 08:58:27;;;;;;;18.20;16.30;;;19.60;99.90;;;;;;4990753;28;20449;-86
2022/07/01 09:00:53;;;;;;;16.50;14.80;;;19.70;99.90;;;;;;4989835;28;20121;-86
2022/07/01 09:03:23;;;;;;;18.45;15.48;;;19.70;99.90;;;;;;4988929;28;20454;-86
2022/07/01 09:05:52;;;;;;;17.77;15.88;;;19.90;99.90;;;;;;4976382;28;20038;-85
2022/07/01 09:08:18;;;;;;;16.85;15.13;;;20.10;99.90;;;;;;4996133;28;20034;-85
2022/07/01 09:10:44;;;;;;;16.25;13.98;;;20.40;99.90;;;;;;4995327;28;20038;-86
2022/07/01 09:13:12;;;;;;;17.05;13.30;;;20.40;99.90;;;;;;4973617;28;20062;-86
2022/07/01 09:15:39;;;;;;;14.13;12.13;;;20.30;99.90;;;;;;4983909;28;20057;-85
2022/07/01 09:18:15;;;;;;;14.90;11.13;;;20.40;99.90;;;;;;4973728;28;20050;-85
2022/07/01 09:20:47;;;;;;;14.57;10.48;;;20.30;99.90;;;;;;5007962;28;20038;-85
2022/07/01 09:23:22;;;;;;;13.27;11.25;;;20.40;99.90;;;;;;4996766;28;20028;-86
2022/07/01 09:25:50;;;;;;;13.25;11.85;;;20.40;99.90;;;;;;4993572;28;20029;-86
2022/07/01 09:28:21;;;;;;;14.65;11.43;;;20.20;99.90;;;;;;4989626;28;20031;-86
2022/07/01 09:30:49;;;;;;;13.38;11.98;;;19.90;99.90;;;;;;4989473;28;20050;-85
2022/07/01 09:33:16;;;;;;;14.55;11.35;;;19.80;99.90;;;;;;4994223;28;20037;-86
2022/07/01 09:35:44;;;;;;;14.70;11.27;;;19.90;99.90;;;;;;4995797;28;20212;-86
2022/07/01 09:38:12;;;;;;;13.60;10.57;;;19.80;99.90;;;;;;4995228;28;20046;-87
2022/07/01 09:40:54;;;;;;;12.35;8.80;;;19.70;99.90;;;;;;4984545;28;20090;-86
2022/07/01 09:43:24;;;;;;;15.48;8.60;;;19.60;99.90;;;;;;4993726;28;20038;-86
2022/07/01 09:46:10;;;;;;;11.40;9.15;;;19.40;99.90;;;;;;4993721;28;20044;-86
2022/07/01 09:48:36;;;;;;;10.45;8.27;;;19.30;99.90;;;;;;4984862;28;20516;-86
2022/07/01 09:51:04;;;;;;;11.30;8.60;;;19.40;99.90;;;;;;4965695;28;20046;-85
2022/07/01 09:53:30;;;;;;;13.20;8.60;;;19.60;99.90;;;;;;4976714;28;20108;-86
2022/07/01 09:55:56;;;;;;;12.43;8.13;;;19.80;99.90;;;;;;4977598;28;20033;-85
2022/07/01 09:58:22;;;;;;;8.43;7.43;;;20.00;99.90;;;;;;4970256;28;20042;-85
2022/07/01 10:00:48;;;;;;;13.43;8.10;;;20.10;99.90;;;;;;4975341;28;20076;-86
2022/07/01 10:03:14;;;;;;;11.15;8.15;;;20.50;99.90;;;;;;4976131;28;20038;-86
2022/07/01 10:05:56;;;;;;;11.10;8.65;;;20.80;99.90;;;;;;4963811;28;20056;-86
2022/07/01 10:08:37;;;;;;;11.65;8.63;;;20.80;99.90;;;;;;4964979;28;20136;-85
2022/07/01 10:11:37;;;;;;;12.02;9.18;;;20.60;99.90;;;;;;4979953;28;20049;-87
2022/07/01 10:14:05;;;;;;;11.52;8.30;;;20.40;99.90;;;;;;5012489;28;20106;-86
2022/07/01 10:16:32;;;;;;;9.13;7.90;;;20.50;99.90;;;;;;4992165;28;20038;-86
2022/07/01 10:18:58;;;;;;;13.02;7.30;;;20.70;99.90;;;;;;5001973;28;20280;-87
2022/07/01 10:21:29;;;;;;;8.73;7.03;;;21.00;99.90;;;;;;4991524;28;20042;-86
2022/07/01 10:24:20;;;;;;;9.70;6.55;;;21.00;99.90;;;;;;4987848;28;20065;-86
2022/07/01 10:26:46;;;;;;;9.40;5.78;;;21.10;99.90;;;;;;4982228;28;20034;-86
2022/07/01 10:29:36;;;;;;;6.15;5.50;;;21.40;99.90;;;;;;4984261;28;20530;-85
2022/07/01 10:32:27;;;;;;;5.95;5.40;;;22.10;99.90;;;;;;4970776;28;20046;-86
2022/07/01 10:35:04;;;;;;;6.63;5.10;;;22.70;99.90;;;;;;4992862;28;20042;-81
2022/07/01 10:37:30;;;;;;;6.88;5.75;;;22.80;99.90;;;;;;5009212;28;20049;-81
2022/07/01 10:40:00;;;;;;;6.63;4.95;;;22.80;99.90;;;;;;4987469;28;20084;-80
2022/07/01 10:42:36;;;;;;;5.38;4.72;;;22.70;99.90;;;;;;5011741;28;20080;-83
2022/07/01 10:45:10;;;;;;;5.30;4.55;;;22.70;99.90;;;;;;4994524;28;20054;-81
2022/07/01 10:47:38;;;;;;;5.93;4.57;;;22.30;99.90;;;;;;4988133;28;20461;-80
2022/07/01 10:50:15;;;;;;;5.35;4.82;;;22.00;99.90;;;;;;4999169;28;20054;-80
2022/07/01 10:53:03;;;;;;;6.97;5.00;;;22.00;99.90;;;;;;4982539;28;20081;-80
2022/07/01 10:55:41;;;;;;;6.57;4.55;;;22.40;99.90;;;;;;4971931;28;20038;-80
2022/07/01 10:58:07;;;;;;;6.25;4.18;;;22.90;99.90;;;;;;4977734;28;20054;-80
2022/07/01 11:00:35;;;;;;;5.25;4.32;;;23.30;99.90;;;;;;4996728;28;20042;-80
2022/07/01 11:03:22;;;;;;;7.13;4.15;;;23.50;99.90;;;;;;4993218;28;20054;-81
2022/07/01 11:05:50;;;;;;;4.43;3.35;;;23.60;93.50;;;;;;4986020;28;20170;-80
2022/07/01 11:08:16;;;;;;;4.95;3.63;;;23.70;95.10;;;;;;4993202;28;20050;-81
2022/07/01 11:10:43;;;;;;;4.63;3.25;;;23.60;99.50;;;;;;4974120;28;20046;-81
2022/07/01 11:13:13;;;;;;;5.47;3.70;;;23.70;99.60;;;;;;4990251;28;20057;-81
2022/07/01 11:15:39;;;;;;;3.88;3.30;;;23.70;91.90;;;;;;4970349;28;21033;-80
2022/07/01 11:18:05;;;;;;;5.80;3.72;;;23.80;99.10;;;;;;4972490;28;20526;-80
2022/07/01 11:20:32;;;;;;;6.22;3.72;;;24.20;99.90;;;;;;5016445;28;20045;-81
2022/07/01 11:22:59;;;;;;;4.80;3.03;;;24.70;99.10;;;;;;4981686;28;20366;-80
2022/07/01 11:25:24;;;;;;;8.25;3.53;;;25.30;98.30;;;;;;4998804;28;20498;-81
2022/07/01 11:27:51;;;;;;;5.22;3.55;;;25.40;96.00;;;;;;4995932;28;20038;-79
2022/07/01 11:30:19;;;;;;;3.75;3.40;;;25.30;98.50;;;;;;4992215;28;20117;-80
2022/07/01 11:32:48;;;;;;;4.47;3.10;;;25.40;97.00;;;;;;4992487;28;20049;-82
2022/07/01 11:40:58;;;;;;;4.82;3.03;;;25.40;85.20;;;;;;4993909;28;20501;-80
2022/07/01 11:43:26;;;;;;;3.95;3.22;;;24.90;95.40;;;;;;4993637;28;20069;-80
2022/07/01 11:45:53;;;;;;;5.72;3.75;;;24.80;92.70;;;;;;4987651;28;20121;-81
2022/07/01 11:48:29;;;;;;;6.18;3.92;;;24.60;91.50;;;;;;4967321;28;20038;-81
2022/07/01 11:50:54;;;;;;;4.15;3.20;;;24.30;85.50;;;;;;4997206;28;20449;-81
2022/07/01 11:53:20;;;;;;;3.85;2.38;;;24.00;91.40;;;;;;4982328;28;20034;-81
2022/07/01 11:55:46;;;;;;;5.45;2.80;;;24.30;87.00;;;;;;4991153;28;20036;-83
2022/07/01 11:58:11;;;;;;;5.15;2.60;;;24.10;86.50;;;;;;4974537;28;20085;-82
2022/07/01 12:00:38;;;;;;;4.53;3.17;;;23.80;89.20;;;;;;4992035;28;20034;-81
2022/07/01 12:03:07;;;;;;;4.25;3.10;;;23.30;92.60;;;;;;4987527;28;20042;-82
2022/07/01 12:05:34;;;;;;;6.00;3.00;;;23.00;93.60;;;;;;4978376;28;20540;-82
2022/07/01 12:08:00;;;;;;;4.43;2.75;;;22.70;95.00;;;;;;5003433;28;20503;-81
2022/07/01 12:10:27;;;;;;;8.57;2.92;;;22.40;96.30;;;;;;5006986;28;20061;-86
2022/07/01 12:12:53;;;;;;;5.25;3.20;;;22.10;98.50;;;;;;4994533;28;20096;-85
2022/07/01 12:15:23;;;;;;;4.05;3.17;;;21.50;99.90;;;;;;4996378;28;20042;-88
2022/07/01 12:17:49;;;;;;;3.72;3.22;;;21.10;99.90;;;;;;5002936;28;20115;-79
2022/07/01 12:20:15;;;;;;;6.78;3.88;;;21.00;99.90;;;;;;5004583;28;20062;-79
2022/07/01 12:22:40;;;;;;;5.20;3.60;;;21.20;99.90;;;;;;4978907;28;20050;-85
2022/07/01 12:25:08;;;;;;;4.55;3.13;;;21.40;99.90;;;;;;4981532;28;20045;-85
2022/07/01 12:27:38;;;;;;;5.50;2.60;;;22.10;99.90;;;;;;4988865;28;20034;-85
2022/07/01 12:30:05;;;;;;;6.68;2.50;;;22.30;99.90;;;;;;5008628;28;20121;-85
2022/07/01 12:32:33;;;;;;;3.63;2.03;;;22.60;99.90;;;;;;4970226;28;20042;-85
2022/07/01 12:35:01;;;;;;;4.30;2.20;;;22.90;99.90;;;;;;4962725;28;20046;-85
2022/07/01 12:37:35;;;;;;;4.30;2.10;;;23.60;99.90;;;;;;5001343;28;20039;-85
2022/07/01 12:40:06;;;;;;;5.97;2.13;;;24.10;99.90;;;;;;4985876;28;20038;-84
2022/07/01 12:42:41;;;;;;;5.38;2.13;;;24.10;97.40;;;;;;4986571;28;20077;-84
2022/07/01 12:45:23;;;;;;;3.80;2.10;;;23.70;97.50;;;;;;4985347;28;20146;-84
2022/07/01 12:47:51;;;;;;;3.03;1.60;;;23.30;93.30;;;;;;4995159;28;20077;-85
2022/07/01 12:50:21;;;;;;;4.25;2.03;;;23.30;97.10;;;;;;4967414;28;20128;-85
2022/07/01 12:53:11;;;;;;;3.90;2.00;;;23.10;95.80;;;;;;4969897;28;20508;-83
2022/07/01 12:55:41;;;;;;;4.95;2.35;;;22.90;94.10;;;;;;4987854;28;20069;-86
2022/07/01 12:58:10;;;;;;;4.38;2.00;;;22.90;92.70;;;;;;4987052;28;20232;-86